Share

Veguita, NM (87062)

Belen (KNMBELEN2) Elev 4813 ft | 34.66 °N, 106.78 °W | Change Station

Current weather conditions updated 11 minutes ago

Clear
Clear
59.2 °F
Feels Like 59.2 °F
N
0.0
Wind Variable Wind from NW
Sunrise 6:32 AM
Sunset 7:40 PM
Moon Waning Gibbous

Tomorrow is forecast to be Warmer than today.

Pressure 30.11 in
Visibility 10.0 miles
Clouds Clear
Dew Point 26 °F
Humidity 28%
Rainfall 0.00 in
Snow Depth Not available.
UV 0 out of 16
Pollen 9.20 out of 12
Air Quality Not available.
Flu Activity Local Activity
METAR KE80 180315Z AUTO 14007KT 10SM CLR 14/M07 A3011 RMK AO2 T01351073

More Conditions Fewer Conditions

Pressure 30.11 in
Visibility 10.0 miles
Clouds Clear
Dew Point 26 °F
Humidity 28%
Rainfall 0.00 in
Snow Depth Not available.
UV 0 out of 16
Pollen 9.20 out of 12
Air Quality Not available.
Flu Activity Local Activity
METAR KE80 180315Z AUTO 14007KT 10SM CLR 14/M07 A3011 RMK AO2 T01351073

More Conditions Fewer Conditions

10-Day Forecast

Almanac

Astronomy

Apr. 17, 2014 Rise Set
Actual Time 6:32 AM MDT 7:40 PM MDT
Civil Twilight 6:06 AM MDT 8:06 PM MDT
Nautical Twilight 5:36 AM MDT 8:37 PM MDT
Astronomical Twilight 5:04 AM MDT 9:09 PM MDT
Moon 10:23 PM MDT (4/17) 8:11 AM MDT (4/17)
Length of Visible Light 13h 59m
Length of Day
13h 07m
Tomorrow will be 2m 1s longer.
Waning Gibbous, 91% of the Moon is Illuminated
Today
Waning Gibbous
Apr 22
Last Quarter
Apr 29
New
May 6
First Quarter
May 14
Full

Today's Extremes

State Highs State Lows

Community

  • SUNRISE THROUGH THE TREES.
    SUNRISE THROUGH THE TREES.
  • Dog Wood Blossoms
    Dog Wood Blossoms
  • Morning Light
    Morning Light
  • New Day
    New Day
  • Lake Michigan Sunrise
    Lake Michigan Sunrise

WunderPhotos

Upload Photos

1,702,240 photos uploaded!

WunderBlogs® & News

Nearby

Snow Depth

Station Depth Elevation
Quemazon 0 in 9500 ft
Rice Park 0 in 8460 ft
Santa Fe 32 in 11445 ft
Senorita Divide #2 0 in 8600 ft
Wesner Springs 0 in 11120 ft

Coastal Water Temperatures

Place Temperature
No Stations Reporting

Earthquake Activity

City Distance Mag. Time & Date
No recent earthquake activity has been reported nearby.
Minimum magnitude displayed is 2.5.

Nearby Weather Stations

Station Location Temp. Windchill Dew Point Humidity Wind Precip. Elev Updated Type
RAWS SEVILLETA NM, La Joya, NM 66 °F - 20 °F 17% SE  at  7 mph 0.00 in / hr 4789 ft 8:11 PM MDT MADIS
Belen, Belen, NM 59.2 °F - 26 °F 28% NW  at  0.0 mph - / hr 4813 ft 9:20 PM MDT Normal
Valencia Y, Los Lunas, NM 61.2 °F - 26 °F 20% ENE  at  2.0 mph 0.00 in / hr 4852 ft 9:31 PM MDT Rapid Fire
Community Road, Polvadera, NM 57.1 °F - 32 °F 38% South  at  0.7 mph 0.00 in / hr 4639 ft 9:31 PM MDT Rapid Fire
Red Bluff, Mountainair, NM 43.1 °F 39 °F 23 °F 45% WNW  at  6.8 mph - / hr 6804 ft 9:30 PM MDT Normal

Show More Stations Show Fewer Stations

What do you think?

We're not finished. Please let us know what you like, what you don't like, and what you are still missing.